Time;durP1;ratioP1;P1;durP2;ratioP2;P2;SDS_P1;SDS_P2;PMS_P1;PMS_P2;Temp;Humidity;BMP_temperature;BMP_pressure;BME280_temperature;BME280_humidity;BME280_pressure;Samples;Min_cycle;Max_cycle;Signal;HPM_P1;HPM_P2
2023/10/11 00:03:04;;;;;;;6.97;4.43;;;16.30;99.90;;;;;;5073268;28;20512;-72
2023/10/11 00:05:39;;;;;;;9.57;4.15;;;16.30;99.90;;;;;;5073894;28;20044;-72
2023/10/11 00:08:07;;;;;;;6.45;3.90;;;16.30;99.90;;;;;;5072586;28;20055;-71
2023/10/11 00:10:42;;;;;;;6.93;4.07;;;16.20;99.90;;;;;;5073200;28;20499;-71
2023/10/11 00:13:10;;;;;;;8.07;4.63;;;16.20;99.90;;;;;;5073490;28;20394;-72
2023/10/11 00:15:36;;;;;;;8.45;4.93;;;16.20;99.90;;;;;;5073121;28;20045;-71
2023/10/11 00:18:02;;;;;;;6.60;4.25;;;16.10;99.90;;;;;;5073185;28;20051;-73
2023/10/11 00:23:05;;;;;;;6.90;3.95;;;16.20;99.90;;;;;;5072589;28;20418;-72
2023/10/11 00:25:31;;;;;;;8.15;4.50;;;16.20;99.90;;;;;;5073115;28;20059;-71
2023/10/11 00:27:58;;;;;;;6.85;4.80;;;16.20;99.90;;;;;;5072870;28;20102;-72
2023/10/11 00:30:30;;;;;;;8.40;4.70;;;16.10;99.90;;;;;;5071961;28;20098;-72
2023/10/11 00:32:56;;;;;;;9.10;4.88;;;16.20;99.90;;;;;;5073289;28;20374;-71
2023/10/11 00:35:24;;;;;;;7.55;5.15;;;16.20;99.90;;;;;;5073304;28;20041;-72
2023/10/11 00:37:52;;;;;;;6.28;4.55;;;16.20;99.90;;;;;;5072908;28;20135;-71
2023/10/11 00:40:31;;;;;;;9.35;5.25;;;16.20;99.90;;;;;;5072994;28;20048;-72
2023/10/11 00:43:00;;;;;;;11.38;5.20;;;16.10;99.90;;;;;;5077059;28;20448;-72
2023/10/11 00:45:30;;;;;;;10.15;5.25;;;16.10;99.90;;;;;;5076170;28;20546;-71
2023/10/11 00:47:59;;;;;;;7.63;5.22;;;16.10;99.90;;;;;;5077413;28;20414;-73
2023/10/11 00:50:26;;;;;;;6.90;4.50;;;16.10;99.90;;;;;;5076717;28;20052;-72
2023/10/11 00:52:55;;;;;;;9.52;4.82;;;16.10;99.90;;;;;;5076392;28;20111;-72
2023/10/11 00:55:23;;;;;;;8.13;5.65;;;16.00;99.90;;;;;;5076634;28;20049;-73
2023/10/11 00:57:53;;;;;;;8.68;5.70;;;16.00;99.90;;;;;;5076255;28;20064;-72
2023/10/11 01:00:23;;;;;;;9.02;5.18;;;16.00;99.90;;;;;;5076772;28;20048;-72
2023/10/11 01:02:51;;;;;;;10.35;5.57;;;16.00;99.90;;;;;;5076170;28;20048;-72
2023/10/11 01:05:18;;;;;;;8.90;5.65;;;16.00;99.90;;;;;;5076791;28;20056;-72
2023/10/11 01:07:45;;;;;;;8.15;5.07;;;16.00;99.90;;;;;;5076203;28;20153;-72
2023/10/11 01:10:11;;;;;;;9.20;5.93;;;16.00;99.90;;;;;;5076125;28;20052;-72
2023/10/11 01:12:40;;;;;;;7.80;5.10;;;15.90;99.90;;;;;;5076335;28;20491;-73
2023/10/11 01:15:14;;;;;;;10.40;5.95;;;16.00;99.90;;;;;;5076107;28;20392;-72
2023/10/11 01:17:39;;;;;;;8.40;5.63;;;15.90;99.90;;;;;;5076114;28;20052;-73
2023/10/11 01:20:17;;;;;;;8.95;6.03;;;15.90;99.90;;;;;;5075279;28;20056;-73
2023/10/11 01:22:45;;;;;;;8.65;5.88;;;15.90;99.90;;;;;;5076604;28;20102;-73
2023/10/11 01:25:18;;;;;;;10.15;5.78;;;15.90;99.90;;;;;;5075836;28;20036;-73
2023/10/11 01:27:45;;;;;;;8.50;6.00;;;15.90;99.90;;;;;;5075722;28;20084;-72
2023/10/11 01:30:11;;;;;;;9.25;6.05;;;15.90;99.90;;;;;;5075747;28;20049;-72
2023/10/11 01:32:43;;;;;;;7.95;6.10;;;15.80;99.90;;;;;;5075032;28;20051;-72
2023/10/11 01:35:13;;;;;;;8.10;5.53;;;15.80;99.90;;;;;;5076352;28;20052;-73
2023/10/11 01:37:42;;;;;;;11.32;6.10;;;15.80;99.90;;;;;;5075666;28;20041;-72
2023/10/11 01:40:20;;;;;;;8.10;5.88;;;15.80;99.90;;;;;;5075618;28;20098;-72
2023/10/11 01:42:51;;;;;;;10.27;5.90;;;15.80;99.90;;;;;;5076178;28;20052;-73
2023/10/11 01:45:23;;;;;;;9.95;5.95;;;15.80;99.90;;;;;;5075959;28;20051;-73
2023/10/11 01:47:50;;;;;;;9.52;5.72;;;15.80;99.90;;;;;;5075384;28;20044;-72
2023/10/11 01:50:19;;;;;;;11.13;5.80;;;15.80;99.90;;;;;;5075145;28;20485;-72
2023/10/11 01:52:48;;;;;;;11.07;6.10;;;15.80;99.90;;;;;;5075418;28;20093;-72
2023/10/11 01:55:15;;;;;;;9.35;5.85;;;15.80;99.90;;;;;;5073743;28;20056;-72
2023/10/11 01:57:49;;;;;;;10.50;7.03;;;15.80;99.90;;;;;;5075189;28;20060;-73
2023/10/11 02:00:20;;;;;;;8.38;5.65;;;15.70;99.90;;;;;;5075752;28;20048;-71
2023/10/11 02:02:58;;;;;;;9.43;6.03;;;15.70;99.90;;;;;;5075456;28;20528;-72
2023/10/11 02:05:24;;;;;;;9.80;5.70;;;15.70;99.90;;;;;;5075593;28;20091;-72
2023/10/11 02:07:50;;;;;;;10.52;6.07;;;15.70;99.90;;;;;;5075756;28;20056;-72
2023/10/11 02:10:25;;;;;;;11.18;5.95;;;15.70;99.90;;;;;;5074985;28;20075;-72
2023/10/11 02:12:52;;;;;;;11.05;6.63;;;15.70;99.90;;;;;;5075723;28;20095;-73
2023/10/11 02:15:21;;;;;;;10.57;6.20;;;15.70;99.90;;;;;;5073707;28;20542;-72
2023/10/11 02:17:53;;;;;;;11.05;5.97;;;15.60;99.90;;;;;;5073823;28;20132;-72
2023/10/11 02:20:22;;;;;;;10.30;6.25;;;15.60;99.90;;;;;;5074766;28;20047;-72
2023/10/11 02:22:52;;;;;;;9.93;6.18;;;15.60;99.90;;;;;;5075202;28;20084;-71
2023/10/11 02:25:19;;;;;;;10.80;6.50;;;15.60;99.90;;;;;;5075159;28;20102;-72
2023/10/11 02:27:49;;;;;;;10.52;5.80;;;15.50;99.90;;;;;;5074517;28;20044;-72
2023/10/11 02:30:20;;;;;;;9.60;6.43;;;15.50;99.90;;;;;;5073545;28;20052;-72
2023/10/11 02:32:50;;;;;;;11.05;6.43;;;15.50;99.90;;;;;;5075353;28;20499;-72
2023/10/11 02:35:18;;;;;;;12.00;6.63;;;15.50;99.90;;;;;;5074450;28;20047;-70
2023/10/11 02:37:47;;;;;;;10.02;6.65;;;15.40;99.90;;;;;;5074411;28;20256;-72
2023/10/11 02:40:16;;;;;;;9.60;6.05;;;15.40;99.90;;;;;;5073399;28;20049;-72
2023/10/11 02:42:46;;;;;;;14.32;7.25;;;15.40;99.90;;;;;;5074421;28;20055;-72
2023/10/11 02:45:13;;;;;;;9.40;6.18;;;15.40;99.90;;;;;;5074137;28;20048;-72
2023/10/11 02:47:41;;;;;;;10.13;6.82;;;15.40;99.90;;;;;;5074235;28;20049;-72
2023/10/11 02:50:10;;;;;;;10.95;6.70;;;15.40;99.90;;;;;;5074711;28;20424;-72
2023/10/11 02:52:36;;;;;;;10.82;6.30;;;15.30;99.90;;;;;;5074111;28;20048;-70
2023/10/11 02:55:16;;;;;;;10.30;6.47;;;15.30;99.90;;;;;;5073971;28;20462;-71
2023/10/11 02:57:43;;;;;;;10.85;7.13;;;15.20;99.90;;;;;;5074275;28;20110;-72
2023/10/11 03:00:21;;;;;;;10.38;6.43;;;15.20;99.90;;;;;;5073963;28;20098;-73
2023/10/11 03:02:56;;;;;;;10.68;6.65;;;15.30;99.90;;;;;;5074066;28;20454;-73
2023/10/11 03:05:28;;;;;;;12.35;6.65;;;15.30;99.90;;;;;;5074041;28;20101;-71
2023/10/11 03:08:13;;;;;;;12.20;6.80;;;15.40;99.90;;;;;;5074390;28;20090;-71
2023/10/11 03:10:43;;;;;;;10.80;6.15;;;15.40;99.90;;;;;;5073967;28;20048;-72
2023/10/11 03:13:12;;;;;;;10.45;6.40;;;15.40;99.90;;;;;;5073834;28;20044;-72
2023/10/11 03:15:38;;;;;;;10.05;6.55;;;15.40;99.90;;;;;;5073854;28;20111;-71
2023/10/11 03:18:06;;;;;;;11.80;6.22;;;15.30;99.90;;;;;;5072744;28;20048;-72
2023/10/11 03:20:39;;;;;;;12.63;7.32;;;15.30;99.90;;;;;;5072623;28;20045;-72
2023/10/11 03:23:10;;;;;;;12.30;7.25;;;15.30;99.90;;;;;;5073613;28;20040;-72
2023/10/11 03:25:38;;;;;;;11.65;6.80;;;15.30;99.90;;;;;;5074123;28;20052;-72
2023/10/11 03:28:05;;;;;;;11.35;6.47;;;15.30;99.90;;;;;;5073486;28;20080;-72
2023/10/11 03:30:35;;;;;;;11.13;6.35;;;15.30;99.90;;;;;;5073444;28;20051;-72
2023/10/11 03:33:02;;;;;;;12.25;5.70;;;15.30;99.90;;;;;;5073501;28;20052;-72
2023/10/11 03:35:33;;;;;;;15.25;6.63;;;15.30;99.90;;;;;;5073391;28;20493;-72
2023/10/11 03:38:00;;;;;;;12.55;6.93;;;15.40;99.90;;;;;;5073921;28;20428;-72
2023/10/11 03:40:35;;;;;;;10.45;6.32;;;15.30;99.90;;;;;;5072566;28;20059;-72
2023/10/11 03:43:12;;;;;;;11.05;6.25;;;15.40;99.90;;;;;;5073595;28;20063;-72
2023/10/11 03:45:39;;;;;;;9.57;6.05;;;15.30;99.90;;;;;;5073469;28;20477;-72
2023/10/11 03:48:09;;;;;;;11.07;6.53;;;15.30;99.90;;;;;;5056685;28;20048;-72
2023/10/11 03:50:37;;;;;;;10.90;7.18;;;15.30;99.90;;;;;;5073975;28;20371;-72
2023/10/11 03:53:10;;;;;;;10.40;6.78;;;15.30;99.90;;;;;;5073379;28;20127;-71
2023/10/11 03:55:47;;;;;;;10.38;6.35;;;15.20;99.90;;;;;;5073343;28;20060;-72
2023/10/11 04:01:00;;;;;;;11.85;5.78;;;15.10;99.90;;;;;;5073303;28;20048;-72
2023/10/11 04:03:27;;;;;;;10.65;6.63;;;15.20;99.90;;;;;;5074127;28;20048;-72
2023/10/11 04:05:55;;;;;;;8.68;5.70;;;15.10;99.90;;;;;;5073439;28;20049;-71
2023/10/11 04:08:24;;;;;;;11.50;6.53;;;15.10;99.90;;;;;;5072283;28;20106;-72
2023/10/11 04:10:51;;;;;;;10.85;6.82;;;15.10;99.90;;;;;;5073280;28;20493;-72
2023/10/11 04:13:24;;;;;;;10.00;6.65;;;15.00;99.90;;;;;;5073241;28;20041;-71
2023/10/11 04:15:52;;;;;;;10.57;6.70;;;15.10;99.90;;;;;;5074986;28;20135;-72
2023/10/11 04:18:28;;;;;;;14.38;6.18;;;15.10;99.90;;;;;;5077153;28;20048;-72
2023/10/11 04:23:39;;;;;;;10.77;6.18;;;15.10;99.90;;;;;;5077566;28;20048;-72
2023/10/11 04:26:09;;;;;;;10.80;6.43;;;15.10;99.90;;;;;;5076787;28;20106;-72
2023/10/11 04:28:41;;;;;;;10.52;6.43;;;15.10;99.90;;;;;;5076855;28;20048;-71
2023/10/11 04:33:51;;;;;;;11.70;6.50;;;15.10;99.90;;;;;;5076807;28;20102;-71
2023/10/11 04:36:20;;;;;;;9.43;5.90;;;15.10;99.90;;;;;;5076733;28;20084;-71
2023/10/11 04:38:50;;;;;;;9.07;6.55;;;15.10;99.90;;;;;;5076451;28;20052;-72
2023/10/11 04:41:20;;;;;;;10.13;5.80;;;15.00;99.90;;;;;;5077437;28;20097;-71
2023/10/11 04:44:04;;;;;;;8.77;5.70;;;15.10;99.90;;;;;;5076614;28;20048;-71
2023/10/11 04:46:31;;;;;;;8.27;5.60;;;15.00;99.90;;;;;;5076873;28;20052;-71
2023/10/11 04:49:17;;;;;;;9.15;6.13;;;15.10;99.90;;;;;;5076559;28;20048;-71
2023/10/11 04:51:45;;;;;;;9.40;6.23;;;15.10;99.90;;;;;;5076713;28;20051;-70
2023/10/11 04:54:14;;;;;;;10.70;6.05;;;15.00;99.90;;;;;;5076294;28;20279;-70
2023/10/11 04:59:17;;;;;;;11.43;5.57;;;15.00;99.90;;;;;;5077239;28;20079;-71
2023/10/11 05:04:14;;;;;;;11.75;6.25;;;15.00;99.90;;;;;;5076234;28;20106;-72
2023/10/11 05:06:41;;;;;;;9.88;6.07;;;14.90;99.90;;;;;;5075294;28;20408;-71
2023/10/11 05:12:07;;;;;;;10.93;6.60;;;14.90;99.90;;;;;;5077094;28;20080;-71
2023/10/11 05:14:40;;;;;;;12.23;6.28;;;15.00;99.90;;;;;;5076649;28;20040;-71
2023/10/11 05:19:56;;;;;;;12.15;6.75;;;15.00;99.90;;;;;;5076093;28;20064;-70
2023/10/11 05:32:54;;;;;;;;;;;14.90;99.90;;;;;;5077129;28;20110;-70
2023/10/11 05:51:32;;;;;;;12.52;6.63;;;14.90;99.90;;;;;;5075187;28;20525;-71
2023/10/11 05:54:03;;;;;;;11.68;7.35;;;14.90;99.90;;;;;;5075219;28;20080;-72
2023/10/11 05:56:33;;;;;;;14.00;7.00;;;14.80;99.90;;;;;;5074103;28;20493;-72
2023/10/11 05:59:09;;;;;;;13.05;7.20;;;14.80;99.90;;;;;;5075134;28;20048;-71
2023/10/11 06:01:35;;;;;;;12.18;6.97;;;14.90;99.90;;;;;;5075727;28;20048;-73
2023/10/11 06:04:03;;;;;;;14.50;7.75;;;14.90;99.90;;;;;;5075191;28;20041;-73
2023/10/11 06:06:57;;;;;;;11.65;6.93;;;14.90;99.90;;;;;;5075153;28;20121;-72
2023/10/11 06:09:26;;;;;;;13.57;7.93;;;14.80;99.90;;;;;;5074554;28;20501;-72
2023/10/11 06:11:52;;;;;;;16.65;7.90;;;14.80;99.90;;;;;;5075618;28;20088;-71
2023/10/11 06:14:18;;;;;;;12.52;7.05;;;14.80;99.90;;;;;;5075118;28;20137;-66
2023/10/11 06:16:57;;;;;;;12.10;6.82;;;14.70;99.90;;;;;;5074719;28;20052;-66
2023/10/11 06:19:27;;;;;;;15.57;7.43;;;14.70;99.90;;;;;;5074807;28;20482;-66
2023/10/11 06:21:57;;;;;;;13.82;7.82;;;14.70;99.90;;;;;;5074664;28;20080;-66
2023/10/11 06:24:30;;;;;;;16.13;8.35;;;14.80;99.90;;;;;;5074384;28;20127;-66
2023/10/11 06:27:11;;;;;;;14.95;8.70;;;14.80;99.90;;;;;;5074569;28;20045;-66
2023/10/11 06:29:45;;;;;;;13.93;9.07;;;14.90;99.90;;;;;;5075542;28;20044;-65
2023/10/11 06:32:12;;;;;;;18.23;8.90;;;14.90;99.90;;;;;;5074340;28;20051;-66
2023/10/11 06:34:38;;;;;;;14.07;8.27;;;14.90;99.90;;;;;;5074823;28;20032;-66
2023/10/11 06:37:07;;;;;;;16.73;7.97;;;14.90;99.90;;;;;;5074775;28;20049;-66
2023/10/11 06:42:13;;;;;;;15.93;8.73;;;15.00;99.90;;;;;;5074190;28;20546;-66
2023/10/11 06:44:40;;;;;;;14.80;8.68;;;15.00;99.90;;;;;;5074851;28;20436;-66
2023/10/11 06:47:06;;;;;;;18.55;9.65;;;15.00;99.90;;;;;;5074279;28;20052;-66
2023/10/11 06:49:44;;;;;;;16.20;8.50;;;15.00;99.90;;;;;;5073326;28;20052;-66
2023/10/11 06:52:17;;;;;;;17.70;9.05;;;15.10;99.90;;;;;;5074613;28;20076;-66
2023/10/11 06:55:00;;;;;;;14.82;8.25;;;15.10;99.90;;;;;;5074861;28;20051;-66
2023/10/11 06:57:32;;;;;;;11.32;7.93;;;15.10;99.90;;;;;;5074229;28;20102;-66
2023/10/11 06:59:58;;;;;;;13.95;8.32;;;15.10;99.90;;;;;;5074125;28;20040;-66
2023/10/11 07:02:32;;;;;;;14.48;8.75;;;15.10;99.90;;;;;;5073990;28;20036;-66
2023/10/11 07:05:05;;;;;;;14.68;8.63;;;15.20;99.90;;;;;;5074120;28;20041;-66
2023/10/11 07:07:32;;;;;;;14.82;8.35;;;15.30;99.90;;;;;;5074368;28;20481;-66
2023/10/11 07:10:00;;;;;;;17.85;8.82;;;15.30;99.90;;;;;;5072990;28;20051;-66
2023/10/11 07:12:29;;;;;;;14.25;8.75;;;15.30;99.90;;;;;;5074495;28;20052;-65
2023/10/11 07:14:58;;;;;;;14.13;9.20;;;15.40;99.90;;;;;;5073930;28;20032;-65
2023/10/11 07:17:32;;;;;;;12.50;9.05;;;15.50;99.90;;;;;;5073348;28;20040;-66
2023/10/11 07:19:57;;;;;;;15.15;8.80;;;15.50;99.90;;;;;;5074530;28;20047;-65
2023/10/11 07:22:26;;;;;;;16.70;9.70;;;15.50;99.90;;;;;;5073825;28;20048;-65
2023/10/11 07:24:56;;;;;;;15.00;9.27;;;15.50;99.90;;;;;;5073634;28;20347;-66
2023/10/11 07:27:37;;;;;;;14.57;9.02;;;15.50;99.90;;;;;;5073625;28;20496;-65
2023/10/11 07:30:16;;;;;;;16.17;8.95;;;15.50;99.90;;;;;;5074505;28;20408;-65
2023/10/11 07:32:45;;;;;;;14.70;9.68;;;15.50;99.90;;;;;;5074056;28;20055;-65
2023/10/11 07:35:20;;;;;;;17.00;9.70;;;15.50;99.90;;;;;;5073483;28;20093;-65
2023/10/11 07:37:45;;;;;;;16.33;9.65;;;15.50;99.90;;;;;;5073665;28;20144;-65
2023/10/11 07:40:21;;;;;;;18.13;9.98;;;15.60;99.90;;;;;;5073550;28;20132;-65
2023/10/11 07:42:46;;;;;;;15.70;9.32;;;15.60;99.90;;;;;;5074274;28;20037;-65
2023/10/11 07:45:15;;;;;;;18.38;10.57;;;15.60;99.90;;;;;;5072156;28;20040;-65
2023/10/11 07:47:48;;;;;;;16.40;10.57;;;15.70;99.90;;;;;;5073631;28;20049;-65
2023/10/11 07:50:14;;;;;;;18.10;9.25;;;15.80;99.90;;;;;;5075483;28;20044;-64
2023/10/11 07:52:43;;;;;;;18.95;10.50;;;15.80;99.90;;;;;;5079106;28;20453;-65
2023/10/11 07:55:12;;;;;;;18.27;10.52;;;15.80;99.90;;;;;;5079982;28;20040;-66
2023/10/11 07:57:44;;;;;;;17.38;10.48;;;15.80;99.90;;;;;;5080738;28;20127;-66
2023/10/11 08:00:17;;;;;;;20.33;10.13;;;15.90;99.90;;;;;;5080595;28;20060;-66
2023/10/11 08:03:02;;;;;;;17.98;10.50;;;15.90;99.90;;;;;;5080541;28;20045;-65
2023/10/11 08:05:30;;;;;;;19.00;10.50;;;15.90;99.90;;;;;;5080327;28;20040;-65
2023/10/11 08:07:56;;;;;;;20.45;11.45;;;16.00;99.90;;;;;;5079955;28;20097;-66
2023/10/11 08:10:29;;;;;;;21.90;11.85;;;16.00;99.90;;;;;;5079833;28;20127;-65
2023/10/11 08:12:59;;;;;;;18.88;11.85;;;16.00;99.90;;;;;;5080540;28;20123;-65
2023/10/11 08:15:25;;;;;;;20.90;11.20;;;16.00;99.90;;;;;;5079846;28;20044;-65
2023/10/11 08:17:52;;;;;;;21.20;12.13;;;16.10;99.90;;;;;;5080262;28;20040;-65
2023/10/11 08:20:18;;;;;;;20.08;11.48;;;16.10;99.90;;;;;;5079869;28;20045;-65
2023/10/11 08:22:47;;;;;;;20.80;11.45;;;16.10;99.90;;;;;;5079118;28;20398;-66
2023/10/11 08:25:14;;;;;;;23.60;13.27;;;16.20;99.90;;;;;;5078447;28;20040;-65
2023/10/11 08:27:41;;;;;;;21.05;11.90;;;16.20;99.90;;;;;;5080092;28;20048;-66
2023/10/11 08:30:08;;;;;;;21.13;12.85;;;16.20;99.90;;;;;;5079674;28;20462;-66
2023/10/11 08:32:42;;;;;;;19.02;12.60;;;16.20;99.90;;;;;;5079684;28;20086;-65
2023/10/11 08:35:09;;;;;;;22.35;12.45;;;16.20;99.90;;;;;;5079839;28;20124;-65
2023/10/11 08:37:37;;;;;;;21.17;13.63;;;16.20;99.90;;;;;;5080111;28;20373;-65
2023/10/11 08:40:20;;;;;;;25.02;14.02;;;16.20;99.90;;;;;;5079549;28;20032;-65
2023/10/11 08:42:49;;;;;;;21.88;13.02;;;16.20;99.90;;;;;;5079815;28;20067;-66
2023/10/11 08:45:33;;;;;;;22.95;13.32;;;16.20;99.90;;;;;;5079616;28;20036;-65
2023/10/11 08:48:06;;;;;;;24.15;13.25;;;16.20;99.90;;;;;;5080184;28;20083;-65
2023/10/11 08:50:37;;;;;;;22.30;13.23;;;16.20;99.90;;;;;;5079259;28;20082;-66
2023/10/11 08:53:09;;;;;;;22.45;14.15;;;16.20;99.90;;;;;;5080095;28;20369;-66
2023/10/11 08:55:42;;;;;;;21.17;12.05;;;16.30;99.90;;;;;;5079458;28;20139;-66
2023/10/11 08:58:27;;;;;;;27.17;13.98;;;16.20;99.90;;;;;;5080049;28;20052;-66
2023/10/11 09:00:55;;;;;;;25.80;14.40;;;16.20;99.90;;;;;;5078151;28;20040;-65
2023/10/11 09:03:58;;;;;;;25.00;13.25;;;16.20;99.90;;;;;;5074830;28;20074;-66
2023/10/11 09:06:23;;;;;;;20.83;13.50;;;16.20;99.90;;;;;;5074037;28;20047;-66
2023/10/11 09:08:51;;;;;;;22.63;13.07;;;16.20;99.90;;;;;;5075980;28;20047;-65
2023/10/11 09:11:28;;;;;;;27.70;14.57;;;16.10;99.90;;;;;;5075774;28;20484;-65
2023/10/11 09:14:23;;;;;;;24.42;15.05;;;16.10;99.90;;;;;;5076288;28;20037;-65
2023/10/11 09:16:50;;;;;;;24.33;12.23;;;16.10;99.90;;;;;;5074551;28;20131;-65
2023/10/11 09:19:19;;;;;;;24.88;14.23;;;16.10;99.90;;;;;;5076118;28;20049;-66
2023/10/11 09:22:18;;;;;;;23.58;14.23;;;16.10;99.90;;;;;;5076023;28;20385;-66
2023/10/11 09:24:44;;;;;;;26.63;14.52;;;16.20;99.90;;;;;;5075993;28;20043;-65
2023/10/11 09:29:47;;;;;;;25.40;14.98;;;16.10;99.90;;;;;;5076777;28;20071;-65
2023/10/11 09:32:19;;;;;;;25.67;14.85;;;16.10;99.90;;;;;;5075863;28;20055;-65
2023/10/11 09:34:51;;;;;;;28.40;14.80;;;16.00;99.90;;;;;;5075815;28;20129;-65
2023/10/11 09:37:20;;;;;;;27.85;14.93;;;16.10;99.90;;;;;;5075692;28;20049;-66
2023/10/11 09:39:47;;;;;;;26.50;13.73;;;16.00;99.90;;;;;;5074490;28;20041;-66
2023/10/11 09:42:22;;;;;;;27.08;15.90;;;16.00;99.90;;;;;;5075637;28;20048;-66
2023/10/11 09:44:57;;;;;;;30.00;14.93;;;16.10;99.90;;;;;;5075340;28;20040;-66
2023/10/11 09:47:24;;;;;;;24.88;15.18;;;16.10;99.90;;;;;;5075510;28;20047;-66
2023/10/11 09:49:53;;;;;;;26.65;14.35;;;16.10;99.90;;;;;;5075504;28;20127;-67
2023/10/11 09:52:23;;;;;;;29.55;15.55;;;16.10;99.90;;;;;;5075070;28;20045;-66
2023/10/11 09:54:51;;;;;;;24.52;13.57;;;16.20;99.90;;;;;;5075516;28;20080;-66
2023/10/11 09:57:27;;;;;;;28.33;16.20;;;16.20;99.90;;;;;;5075613;28;20071;-67
2023/10/11 10:00:08;;;;;;;25.45;14.20;;;16.20;99.90;;;;;;5075234;28;20036;-66
2023/10/11 10:02:38;;;;;;;25.70;13.48;;;16.20;99.90;;;;;;5075291;28;20084;-66
2023/10/11 10:05:07;;;;;;;22.48;13.48;;;16.30;99.90;;;;;;5075010;28;20090;-66
2023/10/11 10:10:11;;;;;;;21.92;12.10;;;16.30;99.90;;;;;;5075126;28;20059;-66
2023/10/11 10:13:00;;;;;;;23.58;12.90;;;16.30;99.90;;;;;;5075540;28;20047;-64
2023/10/11 10:15:33;;;;;;;22.15;12.73;;;16.30;99.90;;;;;;5074896;28;20043;-66
2023/10/11 10:18:01;;;;;;;19.73;11.63;;;16.40;99.90;;;;;;5074815;28;20135;-65
2023/10/11 10:20:43;;;;;;;24.92;11.88;;;16.40;99.90;;;;;;5074964;28;20106;-66
2023/10/11 10:23:15;;;;;;;27.77;11.00;;;16.50;99.90;;;;;;5073740;28;20518;-66
2023/10/11 10:25:48;;;;;;;24.75;11.50;;;16.50;99.90;;;;;;5075311;28;20376;-66
2023/10/11 10:28:32;;;;;;;19.50;10.63;;;16.50;99.90;;;;;;5074513;28;20131;-65
2023/10/11 10:31:16;;;;;;;21.13;10.43;;;16.60;99.90;;;;;;5074943;28;20443;-66
2023/10/11 10:34:06;;;;;;;19.90;10.82;;;16.60;99.90;;;;;;5075025;28;20048;-66
2023/10/11 10:36:32;;;;;;;20.15;10.82;;;16.70;99.90;;;;;;5066551;28;20053;-68
2023/10/11 10:38:58;;;;;;;17.65;11.00;;;16.80;99.90;;;;;;5074465;28;20381;-66
2023/10/11 10:41:25;;;;;;;18.58;9.82;;;16.90;99.90;;;;;;5074510;28;20123;-69
2023/10/11 10:44:11;;;;;;;17.52;9.45;;;17.00;99.90;;;;;;5074604;28;20361;-67
2023/10/11 10:46:53;;;;;;;17.98;9.65;;;17.10;99.90;;;;;;5074885;28;20040;-66
2023/10/11 10:49:44;;;;;;;15.95;9.30;;;17.20;99.90;;;;;;5073808;28;20053;-67
2023/10/11 10:52:26;;;;;;;15.07;8.98;;;17.20;99.90;;;;;;5073934;28;20532;-67
2023/10/11 10:55:04;;;;;;;19.27;10.52;;;17.30;99.90;;;;;;5074042;28;20036;-67
2023/10/11 10:57:36;;;;;;;18.17;10.40;;;17.30;99.90;;;;;;5074523;28;20102;-64
2023/10/11 11:03:15;;;;;;;14.77;9.90;;;17.40;99.90;;;;;;5068679;28;20051;-65
2023/10/11 11:05:55;;;;;;;15.00;8.63;;;17.40;99.90;;;;;;5074235;28;20048;-65
2023/10/11 11:08:27;;;;;;;17.35;8.30;;;17.40;99.90;;;;;;5074275;28;20044;-65
2023/10/11 11:11:19;;;;;;;17.17;9.20;;;17.50;99.90;;;;;;5073771;28;20119;-65
2023/10/11 11:13:49;;;;;;;12.30;8.75;;;17.60;99.90;;;;;;5073590;28;20078;-65
2023/10/11 11:16:16;;;;;;;15.38;8.63;;;17.70;99.90;;;;;;5073682;28;20044;-65
2023/10/11 11:18:45;;;;;;;15.50;8.50;;;17.80;99.90;;;;;;5073256;28;20481;-65
2023/10/11 11:21:21;;;;;;;13.27;7.45;;;17.90;99.90;;;;;;5073506;28;20036;-65
2023/10/11 11:23:51;;;;;;;11.27;6.80;;;18.10;99.90;;;;;;5074106;28;20049;-65
2023/10/11 11:26:22;;;;;;;16.25;7.93;;;18.20;99.90;;;;;;5073357;28;20049;-66
2023/10/11 11:28:53;;;;;;;12.90;7.03;;;18.30;99.90;;;;;;5073346;28;20045;-65
2023/10/11 11:34:05;;;;;;;12.55;6.43;;;18.30;99.90;;;;;;5073422;28;20056;-66
2023/10/11 11:36:32;;;;;;;11.48;6.97;;;18.30;99.90;;;;;;5073364;28;20052;-66
2023/10/11 11:39:17;;;;;;;11.60;6.13;;;18.30;99.90;;;;;;5073224;28;20102;-66
2023/10/11 11:41:58;;;;;;;10.50;6.28;;;18.40;99.90;;;;;;5072075;28;20053;-66
2023/10/11 11:44:24;;;;;;;10.75;6.18;;;18.40;99.90;;;;;;5073368;28;20046;-66
2023/10/11 11:46:51;;;;;;;10.50;5.82;;;18.60;99.90;;;;;;5073374;28;20040;-66
2023/10/11 11:49:20;;;;;;;11.18;6.28;;;18.60;99.90;;;;;;5073222;28;20119;-66
2023/10/11 11:51:50;;;;;;;8.95;5.30;;;18.60;99.90;;;;;;5074202;28;20043;-65
2023/10/11 11:54:26;;;;;;;8.18;5.30;;;18.50;99.90;;;;;;5072432;28;20377;-66
2023/10/11 11:56:55;;;;;;;;;;;18.50;99.90;;;;;;5073339;28;20548;-65
2023/10/11 11:59:25;;;;;;;9.23;4.65;;;18.50;99.90;;;;;;5073297;28;19920;-66
2023/10/11 12:02:01;;;;;;;6.93;4.53;;;18.50;99.90;;;;;;5072942;28;20541;-66
2023/10/11 12:04:32;;;;;;;8.40;4.72;;;18.50;99.90;;;;;;5073787;28;20040;-65
2023/10/11 12:07:00;;;;;;;8.15;5.07;;;18.50;99.90;;;;;;5073349;28;20048;-66
2023/10/11 12:09:32;;;;;;;7.60;4.70;;;18.50;99.90;;;;;;5073201;28;20041;-65
2023/10/11 12:12:05;;;;;;;8.10;4.10;;;18.60;99.90;;;;;;5073518;28;20117;-66
2023/10/11 12:14:38;;;;;;;8.52;4.20;;;18.60;99.90;;;;;;5073201;28;20051;-66
2023/10/11 12:17:11;;;;;;;9.32;4.40;;;18.70;99.90;;;;;;5073500;28;20361;-66
2023/10/11 12:19:40;;;;;;;8.52;3.38;;;18.80;99.90;;;;;;5073250;28;20045;-66
2023/10/11 12:22:07;;;;;;;7.90;3.72;;;18.90;99.90;;;;;;5073805;28;20076;-65
2023/10/11 12:24:34;;;;;;;8.13;3.63;;;19.00;99.90;;;;;;5073036;28;20040;-65
2023/10/11 12:26:59;;;;;;;5.68;3.00;;;19.00;99.90;;;;;;5073603;28;20145;-65
2023/10/11 12:29:28;;;;;;;6.38;3.05;;;19.00;99.90;;;;;;5073001;28;20080;-66
2023/10/11 12:31:54;;;;;;;5.43;2.47;;;19.00;99.90;;;;;;5073056;28;20044;-65
2023/10/11 12:34:24;;;;;;;7.57;3.10;;;19.00;99.90;;;;;;5072922;28;20044;-66
2023/10/11 12:36:54;;;;;;;5.03;2.65;;;19.10;99.90;;;;;;5074309;28;20075;-65
2023/10/11 12:39:20;;;;;;;7.35;3.30;;;19.10;99.90;;;;;;5077014;28;20110;-65
2023/10/11 12:41:50;;;;;;;4.30;2.70;;;19.20;99.90;;;;;;5076692;28;20036;-66
2023/10/11 12:44:17;;;;;;;5.53;3.25;;;19.20;99.90;;;;;;5076611;28;20082;-66
2023/10/11 12:46:43;;;;;;;5.55;2.92;;;19.20;99.90;;;;;;5076618;28;20496;-66
2023/10/11 12:49:15;;;;;;;6.25;3.50;;;19.10;99.90;;;;;;5076566;28;20048;-65
2023/10/11 12:51:42;;;;;;;5.05;3.42;;;19.10;99.90;;;;;;5076460;28;20469;-66
2023/10/11 12:54:12;;;;;;;7.40;3.75;;;19.10;99.90;;;;;;5076406;28;20051;-65
2023/10/11 12:56:38;;;;;;;5.90;3.42;;;19.10;99.90;;;;;;5076608;28;20428;-66
2023/10/11 12:59:12;;;;;;;4.97;3.33;;;19.10;99.90;;;;;;5076637;28;20056;-65
2023/10/11 13:01:40;;;;;;;7.18;3.20;;;19.10;99.90;;;;;;5076329;28;20047;-65
2023/10/11 13:04:11;;;;;;;4.95;2.90;;;19.10;99.90;;;;;;5075069;28;20119;-65
2023/10/11 13:06:39;;;;;;;5.85;3.30;;;19.20;99.90;;;;;;5075201;28;20052;-65
2023/10/11 13:09:14;;;;;;;7.00;3.50;;;19.40;99.90;;;;;;5076422;28;20373;-64
2023/10/11 13:11:47;;;;;;;6.15;3.05;;;19.40;99.90;;;;;;5076785;28;20048;-65
2023/10/11 13:14:19;;;;;;;4.47;2.92;;;19.30;99.90;;;;;;5076267;28;20051;-64
2023/10/11 13:16:54;;;;;;;7.35;3.60;;;19.30;99.90;;;;;;5076122;28;20123;-65
2023/10/11 13:19:22;;;;;;;7.70;4.50;;;19.20;99.90;;;;;;5076019;28;20044;-65
2023/10/11 13:21:48;;;;;;;6.25;3.90;;;19.10;99.90;;;;;;5076366;28;20083;-65
2023/10/11 13:24:22;;;;;;;7.53;3.70;;;19.10;99.90;;;;;;5075881;28;20040;-65
2023/10/11 13:26:52;;;;;;;8.13;3.70;;;19.00;99.90;;;;;;5076723;28;20365;-64
2023/10/11 13:29:18;;;;;;;6.78;3.90;;;19.00;99.90;;;;;;5075654;28;20105;-65
2023/10/11 13:31:49;;;;;;;6.43;3.67;;;18.90;99.90;;;;;;5075845;28;20076;-65
2023/10/11 13:34:15;;;;;;;7.57;4.00;;;18.90;99.90;;;;;;5076605;28;20415;-65
2023/10/11 13:36:42;;;;;;;6.93;4.13;;;18.90;99.90;;;;;;5075668;28;20048;-65
2023/10/11 13:39:25;;;;;;;7.03;4.50;;;18.90;99.90;;;;;;5075691;28;20081;-65
2023/10/11 13:41:52;;;;;;;7.40;3.83;;;18.80;99.90;;;;;;5076009;28;20534;-65
2023/10/11 13:44:21;;;;;;;9.02;4.75;;;18.90;99.90;;;;;;5074391;28;20086;-65
2023/10/11 13:46:51;;;;;;;8.18;4.65;;;18.90;99.90;;;;;;5075612;28;20388;-65
2023/10/11 13:49:26;;;;;;;8.98;5.68;;;18.90;99.90;;;;;;5074807;28;20509;-65
2023/10/11 13:51:52;;;;;;;8.70;4.82;;;18.90;99.90;;;;;;5075480;28;20091;-65
2023/10/11 13:54:31;;;;;;;8.45;4.68;;;18.90;99.90;;;;;;5075873;28;20086;-65
2023/10/11 13:56:59;;;;;;;9.43;5.50;;;18.80;99.90;;;;;;5074152;28;20067;-64
2023/10/11 13:59:24;;;;;;;9.80;5.13;;;18.80;99.90;;;;;;5075702;28;20070;-64
2023/10/11 14:07:22;;;;;;;9.63;4.82;;;18.80;99.90;;;;;;5075064;28;20044;-65